Date,TemperatureHighF,TemperatureAvgF,TemperatureLowF,DewpointHighF,DewpointAvgF,DewpointLowF,HumidityHigh,HumidityAvg,HumidityLow,PressureMaxIn,PressureMinIn,WindSpeedMaxMPH,WindSpeedAvgMPH,GustSpeedMaxMPH,PrecipitationSumIn
2013-1-1,52.4,44.5,39.6,51.2,43.0,38.0,96,94,93,30.14,30.00,20,4,21,1.22
2013-1-2,39.6,35.2,34.1,38.0,32.6,31.5,94,90,88,30.27,30.11,13,3,13,0.00
2013-1-3,43.6,34.7,28.2,33.2,29.7,25.6,91,83,56,30.44,30.23,17,2,17,0.00
2013-1-4,46.5,33.8,25.0,29.2,25.9,22.5,92,75,47,30.52,30.41,14,2,14,0.00
2013-1-5,47.7,37.5,26.0,38.1,30.6,23.7,94,78,49,30.45,30.31,8,1,8,0.04
2013-1-6,48.6,40.7,32.6,41.4,37.0,30.3,95,87,70,30.38,30.23,14,2,14,0.00
2013-1-7,51.2,36.2,28.3,35.0,29.6,25.3,90,78,49,30.44,30.31,13,1,13,0.00
2013-1-8,58.9,48.7,33.0,46.5,39.8,29.7,90,72,57,30.38,30.26,14,3,14,0.00
2013-1-9,58.5,56.0,50.8,56.6,54.3,46.5,96,94,81,30.40,30.30,11,1,11,0.58
2013-1-10,66.1,62.9,57.7,61.5,60.0,56.3,96,90,85,30.36,30.04,21,6,21,0.03
2013-1-11,68.5,65.4,62.5,63.8,62.6,60.9,96,91,84,30.12,30.04,22,5,22,0.07
2013-1-12,70.7,67.8,64.9,66.2,64.1,59.9,96,88,80,30.08,29.92,18,4,20,0.10
2013-1-13,69.6,60.4,40.7,65.4,57.3,38.0,96,90,81,30.16,29.87,21,6,21,1.21
2013-1-14,40.7,36.2,33.2,38.0,34.1,31.3,94,92,89,30.32,30.15,25,4,25,1.15
2013-1-15,39.6,36.8,34.8,38.5,35.4,33.2,96,95,94,30.21,29.99,18,3,18,1.79
2013-1-16,38.8,37.9,37.0,37.4,36.5,35.2,95,94,93,30.14,30.00,15,2,15,0.30
2013-1-17,41.6,37.3,34.0,37.2,34.0,30.6,94,88,78,30.45,29.96,36,6,36,0.20
2013-1-18,50.1,36.4,28.7,36.8,30.8,26.4,94,82,42,30.62,30.44,11,1,11,0.02
2013-1-19,54.9,41.0,28.4,35.7,31.7,26.2,93,72,43,30.45,30.25,18,2,18,0.01
2013-1-20,57.4,41.0,30.6,40.7,34.0,28.3,93,78,48,30.28,30.17,14,1,14,0.00
2013-1-21,46.4,36.3,29.5,29.8,23.6,19.0,92,63,36,30.32,30.16,21,3,21,0.00
2013-1-22,38.7,33.5,23.4,22.5,18.1,14.2,75,53,41,30.45,30.30,14,2,14,0.00
2013-1-23,55.3,44.0,31.9,39.7,30.4,20.2,75,59,47,30.42,30.21,13,2,13,0.00
2013-1-24,47.8,40.1,34.8,39.1,25.5,16.8,84,57,38,30.43,30.22,15,4,27,0.00
2013-1-25,48.4,43.9,38.4,46.7,35.1,19.7,94,74,43,30.30,30.12,18,3,18,0.15
2013-1-26,51.9,41.0,33.3,37.3,34.5,31.0,93,79,53,30.36,30.24,13,1,13,0.00
2013-1-27,51.6,46.3,38.7,41.9,37.7,32.5,82,72,64,30.40,30.30,21,3,21,0.00
2013-1-28,63.8,55.2,47.4,54.8,47.7,38.1,89,76,66,30.33,30.18,20,4,20,0.00
2013-1-29,69.5,61.9,54.2,64.0,58.7,51.3,94,89,82,30.19,29.72,32,4,32,0.00
2013-1-30,71.3,54.8,38.1,65.1,50.0,27.5,94,84,64,29.97,29.55,38,8,38,1.18
2013-1-31,48.6,40.1,32.3,31.9,28.6,24.6,80,64,45,30.21,29.97,21,5,21,0.00
2013-2-1,42.9,30.8,24.4,35.0,19.3,13.7,82,63,40,30.50,30.21,28,4,28,0.00
2013-2-2,42.9,33.7,24.8,39.6,28.1,19.5,95,80,61,30.40,30.16,22,1,22,0.04
2013-2-3,55.5,46.4,31.3,38.9,31.2,27.3,95,58,38,30.20,30.10,25,5,25,0.00
2013-2-4,52.4,42.0,31.0,36.8,31.8,26.8,90,69,43,30.14,29.94,14,2,14,0.00
2013-2-5,62.5,49.8,39.2,48.8,42.8,36.3,92,78,54,30.05,29.93,11,1,11,0.02
2013-2-6,64.3,51.7,32.5,43.0,38.7,30.6,95,64,39,30.19,30.05,8,1,8,0.00
2013-2-7,59.4,52.4,47.7,49.3,45.5,37.2,91,78,58,30.08,29.92,10,2,10,0.03
2013-2-8,49.6,45.0,34.1,47.6,40.7,29.1,95,85,71,30.28,29.88,22,3,27,0.25
2013-2-9,59.2,44.6,31.3,38.0,32.3,28.1,90,65,33,30.33,30.14,15,2,15,0.00
2013-2-10,58.5,53.1,49.6,56.5,44.9,35.6,94,75,53,30.17,29.86,24,5,24,0.44
2013-2-11,59.4,53.1,44.4,58.0,47.6,38.9,95,82,58,30.18,29.94,10,2,10,0.02
2013-2-12,52.9,45.9,38.8,42.9,38.0,33.0,89,75,49,30.16,29.76,20,1,20,0.17
2013-2-13,47.4,43.7,39.6,44.2,40.2,35.6,95,88,80,30.03,29.69,21,3,21,0.05
2013-2-14,58.4,43.6,31.1,42.5,35.9,28.8,95,76,43,30.09,30.01,13,2,13,0.00
2013-2-15,56.9,43.2,32.6,43.8,35.0,28.3,95,74,51,30.12,30.05,20,3,20,0.00
2013-2-16,41.2,34.6,26.6,27.9,20.5,15.3,75,57,41,30.23,30.09,24,4,24,0.00
2013-2-17,47.9,34.2,19.8,25.2,20.1,14.9,87,59,32,30.32,30.21,11,1,11,0.00
2013-2-18,61.1,49.7,37.4,43.3,32.2,21.4,88,52,41,30.26,29.88,31,7,32,0.22
2013-2-19,53.7,45.5,29.1,47.5,31.3,18.0,95,62,29,30.23,29.90,22,5,22,0.18
2013-2-20,39.1,35.5,27.7,23.8,21.4,19.6,81,57,49,30.30,30.19,17,3,17,0.00
2013-2-21,56.7,43.7,31.7,46.8,30.6,17.8,92,64,25,30.20,29.83,15,4,15,0.70
2013-2-22,53.1,49.8,47.3,49.0,47.0,45.1,93,90,85,30.06,29.90,18,3,18,0.05
2013-2-23,53.1,46.2,35.5,46.4,43.2,33.3,94,90,77,30.00,29.87,10,1,10,0.00
2013-2-24,59.1,43.4,32.8,36.4,32.6,29.9,92,69,36,30.09,29.94,20,2,20,0.00
2013-2-25,60.9,49.7,39.9,45.4,37.5,30.0,89,64,44,29.95,29.48,31,6,31,0.01
2013-2-26,49.4,45.5,40.6,45.6,40.9,35.0,94,84,68,29.78,29.42,28,7,28,0.22
2013-2-27,54.2,45.1,40.7,40.1,35.8,33.0,78,70,57,29.93,29.78,20,6,20,0.00
2013-2-28,42.0,39.1,36.0,35.5,29.9,27.4,78,69,64,30.07,29.88,21,4,21,0.00
2013-3-1,40.9,37.5,34.4,32.5,31.1,29.1,91,78,63,30.08,30.02,14,3,14,0.01
2013-3-2,37.4,34.0,31.1,32.3,30.2,26.5,92,86,76,30.15,30.02,21,5,21,0.03
2013-3-3,45.4,34.2,27.6,26.5,23.1,18.2,84,66,36,30.18,30.09,21,4,21,0.01
2013-3-4,59.5,45.9,29.7,41.9,30.3,25.1,85,57,35,30.16,29.89,18,3,18,0.00
2013-3-5,57.4,49.4,35.7,55.4,44.2,23.9,94,82,62,30.04,29.67,34,6,34,0.92
2013-3-6,45.4,38.3,29.7,32.2,28.6,23.3,85,69,58,30.29,30.03,28,6,28,0.00
2013-3-7,51.1,37.4,26.7,35.9,29.8,23.6,91,75,54,30.36,30.27,17,2,17,0.00
2013-3-8,63.2,43.4,29.3,35.2,29.5,21.9,89,63,24,30.37,30.22,14,1,14,0.00
2013-3-9,67.3,52.8,36.8,39.6,34.9,29.0,81,53,33,30.24,30.06,17,3,18,0.00
2013-3-10,72.6,63.3,53.9,49.7,42.2,35.7,53,46,38,30.08,29.82,32,8,32,0.00
2013-3-11,66.4,50.7,40.2,53.2,44.9,32.9,94,82,52,29.97,29.76,36,5,36,1.43
2013-3-12,57.2,43.2,30.8,38.0,32.9,28.5,93,69,42,30.17,29.96,20,3,20,0.00
2013-3-13,52.3,41.3,32.1,32.5,27.5,22.8,89,61,33,30.37,30.15,18,4,28,0.00
2013-3-14,55.4,40.2,25.4,33.5,25.0,20.4,86,58,28,30.44,30.23,14,2,14,0.00
2013-3-15,76.4,57.2,37.1,49.3,39.9,27.7,76,54,37,30.24,29.93,13,3,20,0.00
2013-3-16,77.0,67.0,51.9,50.4,48.2,45.3,82,53,37,29.93,29.82,22,5,22,0.00
2013-3-17,71.7,64.0,51.8,54.1,51.3,46.2,81,64,47,29.90,29.80,18,4,18,0.00
2013-3-18,63.4,59.5,49.3,60.7,55.7,45.1,95,87,74,29.93,29.70,29,5,31,0.77
2013-3-19,62.7,49.3,35.2,45.1,34.9,23.1,96,62,28,30.14,29.93,18,3,18,0.00
2013-3-20,59.9,46.6,36.9,31.5,27.1,18.6,72,48,30,30.16,29.97,31,4,32,0.00
2013-3-21,48.7,37.5,26.3,30.5,21.1,14.4,75,53,31,30.10,29.94,17,3,17,0.00
2013-3-22,49.1,44.6,40.3,40.0,32.5,25.1,76,62,53,30.03,29.94,11,1,11,0.01
2013-3-23,53.5,48.9,45.1,50.9,46.7,40.3,95,92,78,29.96,29.65,14,2,14,1.27
2013-3-24,61.3,51.9,39.4,54.5,46.4,28.6,95,82,64,29.79,29.45,32,7,32,0.58
2013-3-25,39.6,36.6,34.9,29.0,26.3,24.9,74,66,57,30.16,29.78,24,8,24,0.00
2013-3-26,42.3,37.0,32.9,31.4,28.9,26.9,80,73,62,30.35,30.14,21,4,21,0.00
2013-3-27,54.6,40.1,26.4,34.4,29.6,23.5,91,69,40,30.41,30.28,17,2,18,0.00
2013-3-28,63.5,46.1,31.6,37.7,33.0,28.5,91,65,34,30.37,30.25,14,1,14,0.00
2013-3-29,68.1,52.5,36.4,44.0,38.2,33.2,90,61,34,30.29,30.13,15,2,18,0.00
2013-3-30,67.4,56.1,45.0,56.0,49.0,40.9,95,78,56,30.16,29.94,10,1,11,0.74
2013-3-31,64.2,57.6,54.6,60.5,56.0,53.1,96,94,85,29.94,29.84,11,1,11,0.45
2013-4-1,69.5,56.6,48.5,55.7,49.2,40.2,97,78,52,30.09,29.89,17,2,17,0.00
2013-4-2,55.9,48.3,41.3,41.6,31.7,26.6,75,54,36,30.23,30.07,17,3,18,0.00
2013-4-3,55.5,48.6,42.3,44.9,34.4,26.4,85,59,36,30.20,30.09,22,2,24,0.05
2013-4-4,47.2,45.6,44.7,44.4,43.1,40.6,93,91,80,30.12,29.96,11,2,11,0.39
2013-4-5,67.5,52.8,44.4,47.3,42.7,37.5,95,73,34,30.10,29.98,22,3,22,0.01
2013-4-6,73.6,57.3,39.0,45.9,41.0,36.6,93,59,31,30.15,30.00,14,2,15,0.00
2013-4-7,74.2,61.0,48.6,53.3,48.1,42.0,84,64,43,30.11,29.96,20,2,24,0.00
2013-4-8,78.7,67.2,55.4,60.1,55.7,48.9,87,68,51,30.05,29.93,21,3,21,0.00
2013-4-9,81.5,70.8,59.5,64.4,59.1,54.3,85,67,50,30.11,29.93,17,3,20,0.00
2013-4-10,85.0,74.4,59.2,61.6,58.5,54.2,88,59,40,30.02,29.78,17,4,17,0.00
2013-4-11,75.1,67.5,54.7,65.6,60.6,52.2,95,79,60,29.81,29.53,27,5,27,1.00
2013-4-12,66.5,53.7,44.1,52.2,44.0,38.4,92,72,42,29.97,29.66,17,3,17,0.00
2013-4-13,72.0,55.9,42.0,49.3,44.2,39.3,93,69,37,30.08,29.96,13,2,13,0.00
2013-4-14,63.7,57.7,49.0,54.7,48.7,41.3,86,73,45,29.98,29.83,20,3,20,0.00
2013-4-15,79.0,66.4,53.0,63.5,58.0,49.2,94,75,56,30.01,29.86,17,2,17,0.00
2013-4-16,81.1,72.1,65.6,69.7,64.7,59.8,85,78,66,30.12,30.00,18,2,18,0.00
2013-4-17,85.8,76.0,68.4,69.3,66.2,63.7,87,72,52,30.13,29.95,18,2,18,0.00
2013-4-18,81.3,73.6,67.1,64.8,62.6,59.1,86,70,50,29.95,29.62,31,5,31,0.00
2013-4-19,74.6,50.7,39.8,66.0,43.6,35.5,93,78,54,30.14,29.59,20,4,24,1.49
2013-4-20,65.0,49.2,35.6,41.3,36.5,31.0,93,66,33,30.26,30.14,18,2,18,0.01
2013-4-21,69.3,55.2,43.4,46.3,40.6,36.4,83,61,35,30.32,30.19,13,1,13,0.00
2013-4-22,72.3,63.2,49.7,51.8,47.8,42.5,81,59,40,30.25,30.07,13,2,13,0.00
2013-4-23,75.0,64.2,55.0,57.7,50.8,43.9,77,63,50,30.14,29.98,15,2,15,0.00
2013-4-24,64.8,53.5,47.6,59.9,49.3,40.7,93,86,77,30.24,29.95,20,2,20,0.02
2013-4-25,55.7,46.2,43.2,42.7,39.7,37.3,85,78,51,30.36,30.21,14,1,14,0.00
2013-4-26,73.5,57.0,42.8,51.2,43.3,38.7,89,64,33,30.37,30.19,18,2,18,0.06
2013-4-27,70.6,62.5,54.4,64.5,57.5,50.9,92,84,74,30.28,29.95,15,1,20,0.09
2013-4-28,66.9,62.4,58.9,64.7,60.2,57.2,95,92,85,29.98,29.86,14,2,14,0.79
2013-4-29,73.4,63.6,57.7,61.5,57.6,54.6,96,82,57,30.00,29.90,8,1,8,0.00
2013-4-30,79.7,68.4,49.9,59.6,56.0,48.0,96,67,44,30.00,29.92,11,1,11,0.00
2013-5-1,75.0,69.1,61.7,61.5,59.4,54.5,84,72,59,30.09,29.98,18,2,18,0.00
2013-5-2,70.3,66.0,61.6,61.2,57.5,53.6,79,74,67,30.12,30.02,13,2,13,0.00
2013-5-3,73.2,64.3,46.9,59.2,56.1,44.6,92,75,59,30.02,29.81,21,4,21,0.46
2013-5-4,52.1,47.0,41.9,46.7,43.9,39.8,94,89,77,29.97,29.87,10,1,10,1.97
2013-5-5,60.2,50.0,43.7,50.5,46.8,41.5,95,89,66,29.90,29.79,13,1,13,0.58
2013-5-6,57.1,52.1,49.6,53.9,50.5,48.0,96,94,87,29.91,29.76,8,0,8,1.73
2013-5-7,69.7,56.0,43.6,57.3,50.9,42.0,96,84,57,29.99,29.88,10,0,10,0.01
2013-5-8,79.0,63.6,50.7,65.2,57.2,49.1,96,81,55,30.05,29.97,10,0,10,0.00
2013-5-9,81.2,67.9,54.0,65.1,59.1,52.2,95,75,50,30.09,29.97,13,1,13,0.00
2013-5-10,71.8,65.6,60.6,65.1,61.2,58.1,94,86,75,30.02,29.87,15,2,15,0.44
2013-5-11,75.7,65.9,53.4,66.9,60.5,50.9,95,84,63,30.00,29.89,17,1,17,0.00
2013-5-12,67.3,57.6,46.3,53.1,42.1,35.1,93,59,33,30.15,29.99,18,2,18,0.00
2013-5-13,71.8,59.0,42.3,50.1,44.7,38.9,88,62,38,30.26,30.13,11,1,14,0.00
2013-5-14,83.5,66.9,49.5,62.8,54.8,46.7,94,68,42,30.18,30.02,15,1,15,0.00
2013-5-15,84.3,70.0,56.7,60.9,57.4,53.2,92,67,39,30.12,29.96,14,0,14,0.00
2013-5-16,82.2,70.5,60.9,66.8,60.0,51.9,91,71,40,30.02,29.92,15,1,15,0.00
2013-5-17,72.1,67.5,64.7,68.6,64.5,58.8,95,90,82,30.03,29.93,13,0,13,0.56
2013-5-18,81.0,72.7,66.2,72.9,68.9,64.7,96,88,73,30.00,29.92,8,0,10,0.01
2013-5-19,83.3,74.7,66.6,74.5,69.5,61.9,96,84,69,30.00,29.92,13,2,13,0.01
2013-5-20,84.8,73.8,64.1,72.7,67.1,60.5,91,80,63,30.03,29.91,11,1,11,0.00
2013-5-21,87.3,77.2,67.0,72.8,68.3,64.1,94,75,54,29.96,29.79,14,1,14,0.00
2013-5-22,80.9,71.4,64.2,69.3,65.4,62.0,94,82,62,29.88,29.80,13,1,13,0.38
2013-5-23,83.0,73.4,60.5,67.4,61.5,57.3,96,68,46,30.03,29.88,14,2,14,0.00
2013-5-24,73.9,64.0,54.8,57.4,52.6,47.7,88,68,42,30.24,30.02,17,2,17,0.00
2013-5-25,79.8,68.6,53.4,56.2,50.2,37.5,88,56,24,30.30,30.15,10,1,10,0.00
2013-5-26,84.5,68.2,53.0,61.2,55.4,49.9,92,67,37,30.22,30.09,8,0,8,0.00
2013-5-27,85.3,72.6,59.7,65.6,61.1,55.9,92,69,48,30.15,30.01,15,1,15,0.00
2013-5-28,84.5,75.6,66.3,66.2,62.7,58.1,81,65,49,30.10,29.99,15,2,15,0.00
2013-5-29,85.8,77.8,69.4,70.8,64.9,59.7,79,65,53,30.11,29.99,14,1,14,0.00
2013-5-30,83.3,77.3,70.8,71.8,67.8,64.2,81,73,62,30.10,29.98,22,2,22,0.00
2013-5-31,83.5,77.6,72.1,71.7,68.2,66.1,83,73,62,30.06,29.94,17,2,17,0.00
2013-6-1,82.8,74.5,69.6,75.7,69.0,65.4,93,83,72,29.99,29.85,18,2,18,0.08
2013-6-2,80.9,73.5,69.3,71.4,68.6,66.0,95,85,66,29.92,29.84,10,0,10,0.08
2013-6-3,82.5,72.1,65.2,67.5,63.4,60.1,91,76,52,29.95,29.86,11,1,11,0.00
2013-6-4,85.7,71.9,60.1,66.4,61.6,57.8,93,73,45,29.99,29.89,8,0,8,0.00
2013-6-5,77.8,70.2,64.2,71.2,66.9,61.2,95,89,74,29.95,29.83,13,0,13,0.26
2013-6-6,83.2,73.2,65.3,73.3,68.3,63.8,96,86,64,29.84,29.69,8,0,8,0.00
2013-6-7,78.3,71.5,65.7,70.1,67.3,63.1,95,87,70,29.84,29.68,10,0,10,0.00
2013-6-8,82.5,71.8,62.6,67.6,63.6,60.2,96,78,50,30.00,29.83,10,0,10,0.00
2013-6-9,85.3,76.4,67.4,75.7,70.4,63.7,94,83,57,29.99,29.85,21,2,21,0.08
2013-6-10,86.5,76.4,67.4,72.2,68.3,64.8,96,78,50,29.94,29.85,13,2,13,0.51
2013-6-11,93.1,81.1,71.9,77.1,72.4,68.7,91,76,54,30.00,29.91,14,0,14,0.00
2013-6-12,94.2,82.7,72.5,78.5,72.8,68.3,95,74,45,30.02,29.90,10,1,10,0.00
2013-6-13,91.9,80.2,71.7,78.3,72.4,65.6,92,78,62,29.92,29.74,18,2,18,0.00
2013-6-14,84.1,73.5,64.5,65.8,61.8,57.5,91,69,43,29.98,29.85,15,1,15,0.00
2013-6-15,87.8,74.6,60.7,69.1,63.9,58.1,95,71,48,30.06,29.96,13,1,13,0.00
2013-6-16,88.8,77.4,67.4,76.6,68.5,62.8,91,75,57,30.05,29.92,14,1,14,0.00
2013-6-17,88.6,74.8,69.7,74.2,70.0,65.1,95,86,55,30.00,29.85,41,1,41,0.96
2013-6-18,82.4,73.9,69.4,73.6,69.2,65.7,96,86,71,29.92,29.81,15,1,15,0.93
2013-6-19,88.4,79.0,65.8,71.6,68.3,64.0,95,72,49,30.01,29.91,13,0,13,0.00
2013-6-20,87.5,75.9,66.8,73.1,67.7,63.9,95,77,56,30.14,30.01,27,1,27,0.72
2013-6-21,85.6,74.8,65.3,71.5,67.1,63.5,96,78,53,30.18,30.07,10,0,10,0.00
2013-6-22,86.3,76.2,66.2,69.7,66.5,63.6,95,74,50,30.17,30.02,11,0,11,0.00
2013-6-23,88.0,76.2,65.3,71.7,67.9,62.6,95,77,55,30.12,30.01,11,0,11,0.00
2013-6-24,88.8,78.1,69.3,74.6,71.1,66.6,95,80,57,30.16,30.02,14,1,14,0.00
2013-6-25,88.3,79.1,73.2,76.3,72.9,71.1,94,82,60,30.09,29.95,11,0,11,0.00
2013-6-26,90.8,81.0,71.2,77.3,72.7,68.4,94,77,58,30.00,29.84,11,1,11,0.00
2013-6-27,92.8,80.7,69.4,79.6,72.9,67.0,95,79,54,29.92,29.77,13,1,13,0.42
2013-6-28,86.5,78.0,71.4,74.8,71.4,68.6,96,81,59,29.81,29.64,14,0,14,0.00
2013-6-29,87.6,77.6,66.8,71.9,66.3,60.2,94,71,41,29.68,29.61,11,1,14,0.00
2013-6-30,88.3,74.2,63.3,68.7,64.2,58.2,94,73,39,29.76,29.65,0,0,0,0.00
2013-7-1,82.2,69.2,63.4,70.7,64.8,61.0,95,86,60,29.81,29.72,0,0,0,0.00
2013-7-2,83.8,77.0,68.2,69.5,66.2,63.9,93,70,56,29.99,29.93,8,0,8,0.00
2013-7-3,81.4,76.5,70.4,71.5,69.7,68.0,93,80,66,30.07,29.99,8,0,8,0.00
2013-7-4,71.6,70.1,68.3,70.4,68.8,66.7,97,96,94,30.04,29.98,10,0,10,5.86
2013-7-5,75.9,71.7,69.3,72.5,70.3,68.1,97,95,87,30.09,30.00,11,0,11,1.04
2013-7-6,73.8,71.8,70.1,71.4,70.1,68.9,97,95,91,30.08,30.01,7,0,7,0.57
2013-7-7,85.2,76.2,70.7,75.6,71.8,69.2,96,87,67,30.10,30.02,10,0,10,0.02
2013-7-8,84.9,77.5,71.8,76.8,73.0,69.9,95,86,72,30.13,30.03,8,0,10,0.00
2013-7-9,90.3,80.1,74.8,80.4,74.8,72.2,95,85,61,30.13,29.99,7,0,7,0.13
2013-7-10,92.2,84.8,70.7,79.3,75.6,68.8,95,75,60,30.02,29.85,28,0,28,2.22
2013-7-11,86.8,76.1,70.1,78.5,72.3,68.9,97,89,71,29.96,29.82,3,0,3,0.19
2013-7-12,73.9,73.9,73.9,71.1,71.1,71.1,91,91,91,29.88,29.88,1,0,1,0.00
2013-7-13,85.8,80.7,75.5,72.2,70.4,65.7,84,71,54,30.00,29.91,11,0,11,0.00
2013-7-14,86.7,78.6,73.0,74.4,71.5,68.8,91,79,62,30.09,29.98,10,0,10,0.07
2013-7-15,86.5,78.9,73.8,74.5,71.5,70.0,92,79,60,30.20,30.08,11,1,11,0.00
2013-7-16,89.3,80.0,72.9,76.1,72.4,69.4,91,78,57,30.26,30.17,4,0,8,0.00
2013-7-17,93.3,81.0,70.9,78.2,73.5,68.8,97,80,52,30.25,30.10,11,0,11,0.00
2013-7-18,90.1,80.5,74.2,76.7,72.7,70.6,91,78,59,30.13,29.99,10,0,10,0.00
2013-7-19,91.0,79.4,70.2,76.2,72.2,68.5,97,80,56,30.06,29.90,8,0,10,0.00
2013-7-20,88.2,79.4,70.6,76.3,72.7,68.3,95,81,60,29.98,29.84,11,0,11,0.00
2013-7-21,89.2,77.2,71.6,77.5,72.5,69.7,95,86,64,29.96,29.88,11,1,11,0.17
2013-7-22,79.4,74.2,70.6,74.9,71.0,67.8,95,90,80,29.92,29.85,13,1,13,0.04
2013-7-23,79.8,74.4,70.6,77.2,71.9,68.5,97,92,81,29.92,29.80,14,0,14,0.55
2013-7-24,85.3,75.8,70.3,75.5,71.7,69.1,96,88,68,29.88,29.80,6,0,6,0.00
2013-7-25,85.2,74.7,66.5,70.1,66.3,63.3,90,76,55,29.99,29.86,13,1,13,0.00
2013-7-26,86.4,74.2,62.3,70.6,66.6,60.8,96,79,53,30.03,29.92,8,0,8,0.00
2013-7-27,85.0,75.7,69.4,73.1,69.3,66.9,94,81,61,29.93,29.84,7,0,7,0.00
2013-7-28,82.8,73.6,67.6,71.3,66.8,62.3,92,80,62,30.04,29.89,14,1,14,0.00
2013-7-29,81.8,71.2,63.8,65.2,62.0,57.2,91,74,46,30.14,30.02,8,0,14,0.00
2013-7-30,76.8,68.1,62.9,72.6,65.6,60.2,95,92,87,30.14,30.03,7,0,11,0.32
2013-7-31,83.4,74.4,67.8,77.7,71.8,65.9,97,92,80,30.07,29.89,15,1,15,1.26
2013-8-1,88.3,78.3,70.0,75.1,70.9,66.6,96,79,58,29.97,29.90,13,1,15,0.00
2013-8-2,86.2,74.6,65.0,71.9,67.4,62.6,96,80,54,30.00,29.93,7,0,7,0.00
2013-8-3,80.1,74.1,67.8,75.7,70.8,65.3,96,89,81,30.04,29.95,7,0,7,0.20
2013-8-4,80.1,73.2,70.2,74.3,69.8,64.4,96,89,77,30.05,29.99,7,0,10,0.00
2013-8-5,83.1,74.7,68.0,70.7,67.3,63.8,89,78,57,30.03,29.93,4,0,4,0.00
2013-8-6,81.0,75.1,70.8,76.6,72.7,68.3,97,92,83,29.96,29.89,10,0,10,1.57
2013-8-7,87.3,75.8,72.2,79.8,73.3,70.6,97,92,75,29.96,29.88,18,0,18,0.85
2013-8-8,88.5,75.5,69.8,81.2,72.5,68.3,96,91,73,29.97,29.88,14,1,14,0.48
2013-8-9,88.3,77.7,72.0,79.4,74.3,70.7,97,90,70,30.01,29.93,13,1,13,0.02
2013-8-10,83.8,75.7,72.1,77.5,73.4,70.5,97,93,80,30.08,30.00,11,0,11,0.41
2013-8-11,88.5,80.5,72.0,79.6,75.5,70.5,98,86,67,30.11,30.01,10,1,10,0.15
2013-8-12,87.7,76.4,71.7,79.1,73.7,70.3,97,92,67,30.06,29.91,10,0,10,0.27
2013-8-13,84.9,77.1,72.4,76.0,72.7,70.0,96,87,71,29.95,29.85,10,1,10,0.00
2013-8-14,81.7,72.5,67.4,70.0,65.6,59.4,90,80,60,30.00,29.89,14,1,14,0.00
2013-8-15,78.5,71.8,60.3,70.7,65.4,57.7,92,80,73,30.01,29.95,8,0,8,0.00
2013-8-16,73.2,69.5,65.6,66.2,64.0,61.4,90,83,77,30.05,29.98,7,0,7,0.00
2013-8-17,70.9,68.8,67.2,66.1,65.0,63.5,93,88,83,30.08,30.02,6,0,6,0.00
2013-8-18,76.3,70.6,66.1,70.4,67.3,64.3,95,89,74,30.12,30.04,11,0,11,0.05
2013-8-19,82.6,73.0,66.5,76.2,70.1,64.7,97,91,77,30.08,29.98,7,0,7,0.15
2013-8-20,85.6,76.4,70.6,76.3,72.5,69.1,97,88,70,30.10,30.01,10,1,15,0.29
2013-8-21,83.5,77.1,72.5,77.0,73.2,70.0,96,88,78,30.14,30.04,11,0,11,0.00
2013-8-22,89.5,75.9,69.2,77.1,71.7,67.2,97,87,62,30.12,29.99,14,0,17,0.05
2013-8-23,89.0,77.3,68.8,77.0,72.0,67.6,97,85,58,30.05,29.94,10,0,10,0.00
2013-8-24,87.2,78.2,69.3,76.0,72.1,67.5,96,82,63,30.15,30.06,7,0,7,0.00
2013-8-25,84.3,75.9,67.6,72.3,68.3,65.5,94,78,61,30.27,30.15,13,1,13,0.00
2013-8-26,84.0,76.3,66.0,69.2,66.1,63.4,93,72,52,30.23,30.11,8,0,8,0.00
2013-8-27,86.8,73.2,63.0,72.6,66.6,61.0,96,81,54,30.13,30.01,8,0,8,0.00
2013-8-28,89.6,79.0,66.1,74.9,71.1,64.0,97,78,56,30.05,29.96,7,0,7,0.00
2013-8-29,91.3,78.5,67.8,76.7,71.7,65.7,97,81,56,30.02,29.92,14,0,14,0.00
2013-8-30,92.2,80.1,71.5,79.1,73.8,69.4,96,82,59,29.97,29.85,7,0,7,0.00
2013-8-31,93.2,80.6,72.0,77.6,73.8,69.9,96,81,55,29.90,29.80,13,0,13,0.00
2013-9-1,90.2,79.5,74.3,75.4,72.1,68.1,93,79,55,29.90,29.80,13,1,13,0.00
2013-9-2,80.8,75.4,69.0,74.1,71.6,67.1,96,88,77,29.93,29.81,13,1,13,0.30
2013-9-3,88.2,77.6,69.6,73.3,69.8,64.5,95,79,50,29.97,29.86,14,1,14,0.00
2013-9-4,87.3,74.2,64.7,68.5,65.4,62.3,95,76,49,30.08,29.95,10,0,10,0.00
2013-9-5,87.0,75.6,61.6,70.5,65.9,59.5,96,74,51,30.12,30.05,13,0,13,0.00
2013-9-6,89.3,74.1,63.4,71.4,65.7,61.0,96,77,47,30.11,30.00,7,0,7,0.00
2013-9-7,89.7,75.8,64.7,75.2,68.4,62.3,97,79,51,30.07,29.95,7,0,8,0.00
2013-9-8,90.5,76.6,66.2,74.7,69.8,63.8,96,81,53,29.99,29.89,8,0,8,0.00
2013-9-9,88.8,77.2,69.9,79.6,71.9,68.1,96,85,61,30.04,29.94,10,0,10,0.21
2013-9-10,89.3,78.5,71.3,75.2,71.4,67.9,96,80,53,30.14,30.04,13,1,13,0.00
2013-9-11,89.5,76.9,69.0,74.9,69.3,66.6,96,79,54,30.17,30.05,8,0,8,0.00
2013-9-12,90.3,76.0,68.0,74.5,69.4,65.7,96,82,53,30.05,29.87,18,0,18,0.29
2013-9-13,81.8,72.0,62.5,68.9,62.8,54.8,96,75,47,29.94,29.86,14,1,14,0.01
2013-9-14,78.0,64.3,52.2,61.9,55.8,50.0,93,76,49,30.02,29.93,13,1,13,0.00
2013-9-15,82.3,67.5,55.6,67.7,60.7,53.6,95,80,52,30.09,30.02,11,0,11,0.00
2013-9-16,86.0,70.6,57.7,65.9,60.9,55.7,97,74,43,30.13,30.04,11,0,11,0.00
2013-9-17,85.9,74.1,62.8,69.6,65.8,60.8,94,76,52,30.13,30.02,14,1,14,0.00
2013-9-18,81.0,73.3,67.7,69.8,65.6,61.7,85,77,67,30.15,30.03,13,1,13,0.00
2013-9-19,84.8,74.4,68.3,70.9,66.5,64.0,87,77,58,30.13,29.99,10,1,10,0.00
2013-9-20,85.5,73.1,64.4,71.0,65.8,62.0,94,79,56,30.01,29.79,13,1,13,0.07
2013-9-21,73.3,67.9,58.9,70.6,64.6,55.3,96,90,69,29.82,29.69,15,1,15,2.14
2013-9-22,77.7,63.9,53.4,59.6,55.3,51.1,95,76,49,29.88,29.80,18,1,18,0.00
2013-9-23,80.8,66.1,53.6,65.1,58.6,51.1,96,78,55,29.95,29.87,10,0,10,0.00
2013-9-24,74.9,68.1,61.1,69.0,64.3,57.7,95,88,80,29.94,29.81,10,0,10,0.00
2013-9-25,77.9,70.1,66.9,70.8,66.5,64.5,94,89,72,29.83,29.75,8,0,8,0.03
2013-9-26,81.5,71.2,65.4,67.9,65.1,62.7,93,82,59,29.97,29.82,10,0,10,0.00
2013-9-27,80.5,68.2,58.9,66.9,61.5,56.4,97,81,53,30.09,29.96,10,0,10,0.00
2013-9-28,78.0,66.6,59.0,61.4,58.8,56.5,94,78,52,30.17,30.03,17,1,17,0.00
2013-9-29,75.5,68.2,59.4,63.1,60.1,56.8,92,76,58,30.09,29.96,13,1,14,0.00
2013-9-30,74.8,66.9,62.8,64.8,61.4,58.4,92,83,69,30.04,29.94,8,0,8,0.06
2013-10-1,81.2,68.9,59.7,69.5,64.0,57.4,96,85,64,30.09,29.98,8,0,11,0.00
2013-10-2,83.3,71.6,62.5,70.1,65.7,60.8,97,83,57,30.11,30.01,7,0,7,0.00
2013-10-3,82.9,73.1,64.0,68.4,65.8,61.6,96,79,57,30.07,29.98,6,1,7,0.00
2013-10-4,84.3,72.9,64.4,72.4,67.1,62.3,94,83,63,30.09,30.00,13,1,13,0.00
2013-10-5,86.5,75.4,66.7,72.2,67.9,64.5,95,79,58,30.04,29.90,15,1,15,0.00
2013-10-6,78.6,70.7,56.8,72.0,65.7,53.4,94,84,74,29.91,29.76,20,2,20,0.13
2013-10-7,71.5,59.5,51.6,55.2,51.4,48.0,94,76,50,30.05,29.88,18,1,18,0.01
2013-10-8,79.4,62.9,51.4,62.5,53.9,47.0,86,73,49,30.07,30.00,14,1,14,0.00
2013-10-9,79.2,67.2,59.9,62.4,57.2,52.2,89,71,52,30.15,30.05,14,1,14,0.00
2013-10-10,83.5,67.5,58.0,64.5,60.2,55.2,93,79,49,30.12,29.99,10,0,10,0.00
2013-10-11,82.3,65.2,54.4,64.4,58.5,52.0,97,81,50,30.06,29.96,8,0,8,0.00
2013-10-12,82.7,72.7,59.3,64.8,62.0,55.7,88,70,52,30.09,29.99,13,0,13,0.00
2013-10-13,83.7,67.6,57.6,64.0,59.3,55.1,97,77,49,30.18,30.08,13,0,13,0.00
2013-10-14,82.9,67.8,58.5,66.1,60.9,55.5,95,80,53,30.18,30.04,10,0,10,0.00
2013-10-15,75.9,68.1,64.4,62.9,61.3,60.3,89,79,62,30.08,29.97,11,1,11,0.00
2013-10-16,67.6,65.7,64.0,65.9,62.8,60.0,96,91,86,30.01,29.88,13,1,13,0.41
2013-10-17,66.3,61.5,51.0,65.0,59.0,48.4,96,92,84,29.98,29.85,8,0,10,0.09
2013-10-18,67.0,54.6,47.1,55.7,50.0,45.2,97,85,59,30.07,29.94,8,0,8,0.00
2013-10-19,68.8,56.3,45.2,57.7,51.6,42.7,94,85,64,30.03,29.90,14,1,14,0.00
2013-10-20,66.2,49.6,38.7,47.0,41.5,36.3,96,77,40,30.09,30.00,7,0,7,0.00
2013-10-21,70.7,53.9,39.6,52.1,45.3,37.0,96,75,42,30.09,29.97,8,0,8,0.00
2013-10-22,65.5,56.5,48.3,56.2,51.4,44.8,94,83,70,30.01,29.86,11,0,11,0.00
2013-10-23,59.9,48.7,40.9,44.8,40.9,37.0,93,76,45,30.11,29.87,20,2,20,0.00
2013-10-24,60.6,49.3,40.4,46.4,41.9,36.3,92,77,56,30.31,30.11,14,1,14,0.00
2013-10-25,55.7,42.7,32.6,36.4,31.0,27.6,85,65,38,30.47,30.31,15,1,15,0.00
2013-10-26,61.1,45.8,30.4,44.4,35.3,27.4,94,70,39,30.33,30.12,13,1,13,0.00
2013-10-27,68.8,59.4,51.5,55.6,50.7,42.8,83,73,60,30.12,30.05,10,1,10,0.00
2013-10-28,68.2,60.4,56.1,59.8,55.9,52.8,93,85,72,30.22,30.08,8,0,8,0.02
2013-10-29,73.8,63.0,53.7,63.8,57.8,51.3,95,84,69,30.27,30.15,13,0,13,0.00
2013-10-30,78.0,66.6,58.2,62.5,58.2,55.3,94,76,48,30.23,30.05,15,1,15,0.00
2013-10-31,73.3,67.9,64.2,66.5,61.5,56.3,93,80,71,30.05,29.66,25,5,25,0.16
2013-11-1,69.5,59.2,49.2,63.1,50.7,45.8,95,76,45,29.84,29.70,13,1,13,0.01
2013-11-2,65.0,52.8,44.9,48.8,43.4,39.7,94,73,41,30.13,29.83,18,1,18,0.00
2013-11-3,62.7,47.2,39.4,40.3,37.8,34.2,92,72,36,30.29,30.13,14,1,14,0.00
2013-11-4,66.7,53.4,39.3,43.9,40.7,34.9,91,64,42,30.36,30.24,22,2,22,0.00
2013-11-5,63.9,56.5,51.7,47.4,42.0,37.9,76,58,50,30.37,30.22,15,1,15,0.00
2013-11-6,75.1,64.4,53.8,62.5,56.4,43.0,92,76,59,30.22,30.02,15,3,15,0.68
2013-11-7,62.4,48.6,35.4,60.0,41.1,32.3,93,77,44,30.31,30.02,24,3,24,0.22
2013-11-8,58.6,43.0,31.3,37.3,33.5,29.1,93,73,36,30.39,30.23,15,1,15,0.00
2013-11-9,60.3,48.9,37.8,45.7,40.4,34.3,91,74,48,30.32,30.20,8,0,8,0.00
2013-11-10,67.9,53.9,43.6,49.0,43.1,33.2,92,69,42,30.31,30.23,14,1,14,0.00
2013-11-11,66.8,50.2,35.7,42.3,35.1,24.8,90,61,22,30.29,30.14,10,0,10,0.00
2013-11-12,50.2,42.2,32.6,44.3,31.6,18.0,87,67,46,30.56,30.16,28,4,28,0.00
2013-11-13,47.1,34.8,28.0,25.9,21.3,17.4,84,60,31,30.66,30.45,17,1,17,0.00
2013-11-14,56.7,44.5,24.8,27.8,24.7,19.9,88,50,24,30.47,30.20,13,1,13,0.00
2013-11-15,55.9,51.0,47.6,50.3,41.8,27.5,95,73,45,30.21,30.07,10,1,10,0.18
2013-11-16,64.9,59.6,51.7,60.0,56.1,50.3,95,88,82,30.12,29.99,15,2,15,0.00
2013-11-17,69.4,65.5,60.6,67.9,63.1,57.4,96,92,78,30.00,29.79,27,4,27,0.45
2013-11-18,64.3,55.8,46.2,57.8,44.7,34.0,94,68,40,30.16,29.91,20,2,20,0.01
2013-11-19,54.0,45.4,38.4,34.1,31.6,28.5,76,59,41,30.23,30.12,24,2,24,0.00
2013-11-20,60.1,49.2,33.2,40.8,35.4,29.5,88,61,40,30.24,30.13,17,3,17,0.00
2013-11-21,62.3,57.1,50.7,54.6,48.2,40.8,84,72,62,30.28,30.19,14,2,14,0.00
2013-11-22,61.6,57.3,49.6,59.6,54.2,46.8,94,90,84,30.26,30.17,18,2,18,0.10
2013-11-23,50.7,43.6,30.7,46.7,35.7,21.6,92,74,55,30.44,30.24,28,5,28,0.01
2013-11-24,39.3,31.1,24.2,21.9,17.5,13.4,75,58,36,30.59,30.43,24,4,24,0.00
2013-11-25,42.8,37.1,28.8,37.1,25.7,16.2,94,66,40,30.44,30.12,15,2,15,0.65
2013-11-26,45.7,40.4,35.9,44.6,38.7,31.2,96,93,83,30.12,29.80,28,4,28,1.56
2013-11-27,36.4,31.9,23.3,31.5,22.6,17.0,84,69,53,30.37,29.90,25,6,25,0.00
2013-11-28,44.2,29.6,19.4,25.1,20.0,15.6,88,70,40,30.51,30.37,8,0,8,0.00
2013-11-29,53.1,36.1,23.9,31.8,26.0,20.9,90,70,39,30.58,30.45,14,1,14,0.00
2013-11-30,56.2,43.6,28.6,33.7,30.3,25.2,90,62,36,30.50,30.25,17,2,21,0.00
2013-12-1,56.4,47.7,32.5,45.1,37.1,28.4,88,68,52,30.25,29.96,11,1,11,0.04
2013-12-2,56.8,52.1,47.8,53.0,49.5,44.3,95,91,84,29.96,29.74,11,1,11,0.05
2013-12-3,61.6,55.8,49.5,58.7,53.9,47.5,96,93,88,29.80,29.73,11,2,11,0.00
2013-12-4,72.7,66.1,59.9,64.1,62.0,58.5,96,87,73,29.90,29.78,24,4,24,0.00
2013-12-5,76.4,64.9,43.7,68.6,60.9,41.2,94,87,72,30.00,29.83,25,4,25,0.01
2013-12-6,43.7,39.8,35.8,41.8,37.9,33.4,94,93,91,30.28,29.93,22,4,22,1.11
2013-12-7,36.0,34.1,32.6,33.7,31.5,30.3,92,90,88,30.45,30.27,22,4,22,0.01
2013-12-8,48.5,42.0,36.1,47.7,40.7,33.1,97,95,89,30.28,30.06,10,1,10,1.26
2013-12-9,48.0,41.0,35.4,46.9,39.4,33.8,96,94,91,30.19,30.06,18,3,18,0.33
2013-12-10,40.3,34.3,27.7,33.8,30.6,25.1,94,87,71,30.39,30.07,21,3,21,0.19
2013-12-11,49.9,35.1,23.8,31.2,27.0,21.6,93,75,40,30.49,30.38,11,1,11,0.00
2013-12-12,40.6,30.6,23.5,27.6,21.1,14.8,85,70,38,30.59,30.41,15,3,15,0.00
2013-12-13,48.2,37.2,23.1,32.8,26.1,19.4,89,66,43,30.41,30.08,11,1,11,0.00
2013-12-14,52.4,46.6,38.6,51.2,42.9,31.0,96,87,56,30.08,29.80,18,4,18,0.65
2013-12-15,38.6,35.6,31.8,35.0,31.7,28.3,90,85,80,30.27,29.99,20,3,20,0.00
2013-12-16,56.3,39.7,29.0,39.9,32.2,26.9,93,76,44,30.29,30.15,13,2,13,0.00
2013-12-17,59.9,47.9,32.4,42.2,37.0,28.7,89,67,50,30.28,30.09,17,3,17,0.00
2013-12-18,51.8,37.7,26.7,31.3,26.8,22.1,91,68,34,30.37,30.23,8,1,8,0.00
2013-12-19,60.9,49.2,35.4,41.1,33.4,28.4,76,56,41,30.28,30.08,14,3,14,0.00
2013-12-20,66.3,60.7,54.2,59.0,52.0,34.2,86,74,45,30.09,29.94,18,4,18,0.00
2013-12-21,72.8,67.9,63.1,67.8,64.0,59.0,92,87,82,29.94,29.69,31,8,31,0.07
2013-12-22,67.9,57.3,54.8,61.3,54.9,52.8,95,92,81,30.04,29.73,24,2,24,1.30
2013-12-23,54.8,39.2,28.9,53.1,35.1,26.1,94,85,73,30.43,30.03,28,4,28,0.00
2013-12-24,36.1,29.8,24.8,26.8,21.9,16.9,89,73,53,30.55,30.41,24,2,24,0.00
2013-12-25,46.2,32.9,21.2,29.7,24.2,17.2,89,72,47,30.45,30.32,13,1,13,0.00
2013-12-26,48.7,35.3,25.6,36.0,28.7,22.8,92,78,56,30.41,30.33,11,1,11,0.00
2013-12-27,54.6,37.1,25.4,34.1,26.1,20.8,91,69,28,30.48,30.36,11,0,11,0.00
2013-12-28,47.0,40.1,31.4,41.7,35.6,26.8,95,84,57,30.37,29.92,11,1,11,0.57
2013-12-29,51.7,45.7,40.5,44.7,41.4,37.8,95,85,72,30.08,29.91,10,1,10,0.23
2013-12-30,44.7,37.7,34.0,42.5,33.7,30.5,94,85,79,30.29,30.08,15,2,15,0.01
2013-12-31,41.5,34.2,29.8,31.6,28.9,27.0,91,82,63,30.49,30.29,11,1,11,0.00
2014-1-1,50.7,39.2,26.8,41.5,32.4,24.3,93,78,57,30.34,30.03,13,2,13,0.00
2014-1-2,48.5,37.7,23.4,47.4,33.3,14.8,96,84,69,30.33,29.84,31,6,31,0.34